sensor_id;sensor_type;location;lat;lon;timestamp;temperature;humidity
3001;DHT22;1510;51.072;6.678;2022-08-07T00:02:09;11.20;78.00
3001;DHT22;1510;51.072;6.678;2022-08-07T00:04:38;11.20;79.70
3001;DHT22;1510;51.072;6.678;2022-08-07T00:07:04;11.20;79.50
3001;DHT22;1510;51.072;6.678;2022-08-07T00:09:31;11.10;79.70
3001;DHT22;1510;51.072;6.678;2022-08-07T00:12:03;11.10;80.80
3001;DHT22;1510;51.072;6.678;2022-08-07T00:14:31;10.90;81.80
3001;DHT22;1510;51.072;6.678;2022-08-07T00:16:59;10.90;82.70
3001;DHT22;1510;51.072;6.678;2022-08-07T00:19:26;10.90;84.70
3001;DHT22;1510;51.072;6.678;2022-08-07T00:21:57;10.90;85.50
3001;DHT22;1510;51.072;6.678;2022-08-07T00:24:28;10.80;88.10
3001;DHT22;1510;51.072;6.678;2022-08-07T00:27:00;10.70;88.30
3001;DHT22;1510;51.072;6.678;2022-08-07T00:29:29;10.70;90.00
3001;DHT22;1510;51.072;6.678;2022-08-07T00:32:01;10.80;90.30
3001;DHT22;1510;51.072;6.678;2022-08-07T00:34:30;10.80;90.20
3001;DHT22;1510;51.072;6.678;2022-08-07T00:36:58;10.80;89.60
3001;DHT22;1510;51.072;6.678;2022-08-07T00:39:28;10.60;89.70
3001;DHT22;1510;51.072;6.678;2022-08-07T00:42:03;10.60;89.60
3001;DHT22;1510;51.072;6.678;2022-08-07T00:44:40;10.60;90.20
3001;DHT22;1510;51.072;6.678;2022-08-07T00:47:08;10.60;90.20
3001;DHT22;1510;51.072;6.678;2022-08-07T00:49:35;10.70;90.80
3001;DHT22;1510;51.072;6.678;2022-08-07T00:52:06;10.60;91.10
3001;DHT22;1510;51.072;6.678;2022-08-07T00:54:33;10.60;91.20
3001;DHT22;1510;51.072;6.678;2022-08-07T00:57:00;10.60;91.20
3001;DHT22;1510;51.072;6.678;2022-08-07T00:59:29;10.70;91.20
3001;DHT22;1510;51.072;6.678;2022-08-07T01:01:56;10.60;91.20
3001;DHT22;1510;51.072;6.678;2022-08-07T01:04:23;10.70;90.90
3001;DHT22;1510;51.072;6.678;2022-08-07T01:06:50;10.60;90.20
3001;DHT22;1510;51.072;6.678;2022-08-07T01:09:24;10.40;90.60
3001;DHT22;1510;51.072;6.678;2022-08-07T01:11:53;10.40;91.10
3001;DHT22;1510;51.072;6.678;2022-08-07T01:14:24;10.50;91.20
3001;DHT22;1510;51.072;6.678;2022-08-07T01:16:52;10.50;91.80
3001;DHT22;1510;51.072;6.678;2022-08-07T01:19:29;10.50;92.20
3001;DHT22;1510;51.072;6.678;2022-08-07T01:21:58;10.60;93.20
3001;DHT22;1510;51.072;6.678;2022-08-07T01:24:31;10.60;93.20
3001;DHT22;1510;51.072;6.678;2022-08-07T01:27:05;10.60;93.40
3001;DHT22;1510;51.072;6.678;2022-08-07T01:29:38;10.50;93.60
3001;DHT22;1510;51.072;6.678;2022-08-07T01:32:09;10.50;93.60
3001;DHT22;1510;51.072;6.678;2022-08-07T01:34:40;10.40;94.40
3001;DHT22;1510;51.072;6.678;2022-08-07T01:37:13;10.30;94.50
3001;DHT22;1510;51.072;6.678;2022-08-07T01:39:42;10.40;94.80
3001;DHT22;1510;51.072;6.678;2022-08-07T01:42:15;10.30;95.10
3001;DHT22;1510;51.072;6.678;2022-08-07T01:45:03;10.10;95.80
3001;DHT22;1510;51.072;6.678;2022-08-07T01:47:39;10.20;96.90
3001;DHT22;1510;51.072;6.678;2022-08-07T01:50:15;10.20;97.70
3001;DHT22;1510;51.072;6.678;2022-08-07T01:52:56;10.10;97.60
3001;DHT22;1510;51.072;6.678;2022-08-07T01:55:46;10.10;97.70
3001;DHT22;1510;51.072;6.678;2022-08-07T01:58:30;10.20;98.90
3001;DHT22;1510;51.072;6.678;2022-08-07T02:01:06;10.10;99.40
3001;DHT22;1510;51.072;6.678;2022-08-07T02:03:40;10.00;99.70
3001;DHT22;1510;51.072;6.678;2022-08-07T02:06:13;9.90;99.90
3001;DHT22;1510;51.072;6.678;2022-08-07T02:08:51;9.90;99.90
3001;DHT22;1510;51.072;6.678;2022-08-07T02:11:22;9.90;99.90
3001;DHT22;1510;51.072;6.678;2022-08-07T02:13:49;9.80;99.90
3001;DHT22;1510;51.072;6.678;2022-08-07T02:16:20;9.90;99.90
3001;DHT22;1510;51.072;6.678;2022-08-07T02:18:49;9.80;99.90
3001;DHT22;1510;51.072;6.678;2022-08-07T02:21:17;9.70;99.90
3001;DHT22;1510;51.072;6.678;2022-08-07T02:23:46;9.70;99.90
3001;DHT22;1510;51.072;6.678;2022-08-07T02:26:14;9.90;99.90
3001;DHT22;1510;51.072;6.678;2022-08-07T02:28:47;9.80;99.90
3001;DHT22;1510;51.072;6.678;2022-08-07T02:31:19;9.90;99.90
3001;DHT22;1510;51.072;6.678;2022-08-07T02:33:48;9.80;99.90
3001;DHT22;1510;51.072;6.678;2022-08-07T02:36:20;9.80;99.90
3001;DHT22;1510;51.072;6.678;2022-08-07T02:38:57;9.70;99.90
3001;DHT22;1510;51.072;6.678;2022-08-07T02:42:05;9.80;99.90
3001;DHT22;1510;51.072;6.678;2022-08-07T02:45:17;9.50;99.90
3001;DHT22;1510;51.072;6.678;2022-08-07T02:48:07;9.60;99.90
3001;DHT22;1510;51.072;6.678;2022-08-07T02:53:57;9.50;99.90
3001;DHT22;1510;51.072;6.678;2022-08-07T02:56:37;9.40;99.90
3001;DHT22;1510;51.072;6.678;2022-08-07T02:59:31;9.30;99.90
3001;DHT22;1510;51.072;6.678;2022-08-07T03:02:28;9.30;99.90
3001;DHT22;1510;51.072;6.678;2022-08-07T03:05:14;9.20;99.90
3001;DHT22;1510;51.072;6.678;2022-08-07T03:07:58;9.30;99.90
3001;DHT22;1510;51.072;6.678;2022-08-07T03:10:53;9.20;99.90
3001;DHT22;1510;51.072;6.678;2022-08-07T03:14:30;9.20;99.90
3001;DHT22;1510;51.072;6.678;2022-08-07T03:16:31;9.10;99.90
3001;DHT22;1510;51.072;6.678;2022-08-07T03:19:18;9.10;99.90
3001;DHT22;1510;51.072;6.678;2022-08-07T03:22:04;8.90;99.90
3001;DHT22;1510;51.072;6.678;2022-08-07T03:25:19;9.00;99.90
3001;DHT22;1510;51.072;6.678;2022-08-07T03:27:59;9.00;99.90
3001;DHT22;1510;51.072;6.678;2022-08-07T03:30:51;8.90;99.90
3001;DHT22;1510;51.072;6.678;2022-08-07T03:33:47;8.90;99.90
3001;DHT22;1510;51.072;6.678;2022-08-07T03:36:26;8.80;99.90
3001;DHT22;1510;51.072;6.678;2022-08-07T03:39:26;8.80;99.90
3001;DHT22;1510;51.072;6.678;2022-08-07T03:42:29;8.80;99.90
3001;DHT22;1510;51.072;6.678;2022-08-07T03:45:14;8.70;99.90
3001;DHT22;1510;51.072;6.678;2022-08-07T03:47:44;8.80;99.90
3001;DHT22;1510;51.072;6.678;2022-08-07T03:50:13;8.80;99.90
3001;DHT22;1510;51.072;6.678;2022-08-07T03:52:43;8.80;99.90
3001;DHT22;1510;51.072;6.678;2022-08-07T03:55:10;8.70;99.90
3001;DHT22;1510;51.072;6.678;2022-08-07T03:57:38;8.90;99.90
3001;DHT22;1510;51.072;6.678;2022-08-07T04:00:06;8.80;99.90
3001;DHT22;1510;51.072;6.678;2022-08-07T04:02:35;8.80;99.90
3001;DHT22;1510;51.072;6.678;2022-08-07T04:05:01;8.80;99.90
3001;DHT22;1510;51.072;6.678;2022-08-07T04:07:34;8.80;99.90
3001;DHT22;1510;51.072;6.678;2022-08-07T04:10:03;8.80;99.90
3001;DHT22;1510;51.072;6.678;2022-08-07T04:23:30;8.70;99.90
3001;DHT22;1510;51.072;6.678;2022-08-07T04:25:57;8.60;99.90
3001;DHT22;1510;51.072;6.678;2022-08-07T04:28:24;8.60;99.90
3001;DHT22;1510;51.072;6.678;2022-08-07T04:30:51;8.60;99.90
3001;DHT22;1510;51.072;6.678;2022-08-07T04:33:18;8.70;99.90
3001;DHT22;1510;51.072;6.678;2022-08-07T04:35:47;8.60;99.90
3001;DHT22;1510;51.072;6.678;2022-08-07T04:38:14;8.80;99.90
3001;DHT22;1510;51.072;6.678;2022-08-07T04:40:42;8.90;99.90
3001;DHT22;1510;51.072;6.678;2022-08-07T04:43:09;9.00;99.90
3001;DHT22;1510;51.072;6.678;2022-08-07T04:45:41;9.20;99.90
3001;DHT22;1510;51.072;6.678;2022-08-07T04:48:14;9.10;99.90
3001;DHT22;1510;51.072;6.678;2022-08-07T04:51:08;9.00;99.90
3001;DHT22;1510;51.072;6.678;2022-08-07T04:53:43;8.90;99.90
3001;DHT22;1510;51.072;6.678;2022-08-07T04:56:17;9.10;99.90
3001;DHT22;1510;51.072;6.678;2022-08-07T04:58:50;9.00;99.90
3001;DHT22;1510;51.072;6.678;2022-08-07T05:01:27;9.30;99.90
3001;DHT22;1510;51.072;6.678;2022-08-07T05:04:03;9.30;99.90
3001;DHT22;1510;51.072;6.678;2022-08-07T05:06:36;9.40;99.90
3001;DHT22;1510;51.072;6.678;2022-08-07T05:09:07;9.50;99.90
3001;DHT22;1510;51.072;6.678;2022-08-07T05:11:38;9.70;99.90
3001;DHT22;1510;51.072;6.678;2022-08-07T05:14:09;9.60;99.90
3001;DHT22;1510;51.072;6.678;2022-08-07T05:17:00;9.80;99.90
3001;DHT22;1510;51.072;6.678;2022-08-07T05:19:33;9.80;99.90
3001;DHT22;1510;51.072;6.678;2022-08-07T05:22:03;9.90;99.90
3001;DHT22;1510;51.072;6.678;2022-08-07T05:24:34;10.00;99.90
3001;DHT22;1510;51.072;6.678;2022-08-07T05:27:02;10.20;99.90
3001;DHT22;1510;51.072;6.678;2022-08-07T05:29:31;10.20;99.90
3001;DHT22;1510;51.072;6.678;2022-08-07T05:32:02;10.40;99.90
3001;DHT22;1510;51.072;6.678;2022-08-07T05:34:29;10.60;99.90
3001;DHT22;1510;51.072;6.678;2022-08-07T05:36:56;11.40;99.90
3001;DHT22;1510;51.072;6.678;2022-08-07T05:39:25;11.70;99.90
3001;DHT22;1510;51.072;6.678;2022-08-07T05:41:52;12.20;99.90
3001;DHT22;1510;51.072;6.678;2022-08-07T05:44:27;12.80;99.90
3001;DHT22;1510;51.072;6.678;2022-08-07T05:50:04;13.90;93.80
3001;DHT22;1510;51.072;6.678;2022-08-07T05:52:35;14.10;91.20
3001;DHT22;1510;51.072;6.678;2022-08-07T05:58:50;14.60;82.50
3001;DHT22;1510;51.072;6.678;2022-08-07T06:01:43;15.00;79.30
3001;DHT22;1510;51.072;6.678;2022-08-07T06:04:14;15.10;75.30
3001;DHT22;1510;51.072;6.678;2022-08-07T06:06:42;15.50;75.60
3001;DHT22;1510;51.072;6.678;2022-08-07T06:09:09;15.80;71.50
3001;DHT22;1510;51.072;6.678;2022-08-07T06:11:37;16.10;70.20
3001;DHT22;1510;51.072;6.678;2022-08-07T06:14:05;16.40;69.70
3001;DHT22;1510;51.072;6.678;2022-08-07T06:16:33;16.40;66.40
3001;DHT22;1510;51.072;6.678;2022-08-07T06:19:00;16.60;63.60
3001;DHT22;1510;51.072;6.678;2022-08-07T06:21:28;16.70;61.90
3001;DHT22;1510;51.072;6.678;2022-08-07T06:23:55;17.10;61.50
3001;DHT22;1510;51.072;6.678;2022-08-07T06:29:29;17.10;57.00
3001;DHT22;1510;51.072;6.678;2022-08-07T06:31:56;17.40;57.80
3001;DHT22;1510;51.072;6.678;2022-08-07T06:37:19;17.70;54.00
3001;DHT22;1510;51.072;6.678;2022-08-07T06:39:45;18.20;54.00
3001;DHT22;1510;51.072;6.678;2022-08-07T06:42:16;18.50;51.60
3001;DHT22;1510;51.072;6.678;2022-08-07T06:44:47;18.50;47.20
3001;DHT22;1510;51.072;6.678;2022-08-07T06:47:15;18.80;44.20
3001;DHT22;1510;51.072;6.678;2022-08-07T06:50:09;19.00;42.50
3001;DHT22;1510;51.072;6.678;2022-08-07T06:52:52;19.10;41.90
3001;DHT22;1510;51.072;6.678;2022-08-07T06:55:23;19.20;39.80
3001;DHT22;1510;51.072;6.678;2022-08-07T06:57:55;19.50;41.70
3001;DHT22;1510;51.072;6.678;2022-08-07T07:00:33;19.60;39.30
3001;DHT22;1510;51.072;6.678;2022-08-07T07:03:07;19.60;34.90
3001;DHT22;1510;51.072;6.678;2022-08-07T07:05:34;19.40;33.90
3001;DHT22;1510;51.072;6.678;2022-08-07T07:08:06;19.40;34.20
3001;DHT22;1510;51.072;6.678;2022-08-07T07:10:45;19.30;34.60
3001;DHT22;1510;51.072;6.678;2022-08-07T07:13:16;19.10;34.60
3001;DHT22;1510;51.072;6.678;2022-08-07T07:15:56;19.00;32.10
3001;DHT22;1510;51.072;6.678;2022-08-07T07:18:47;18.80;34.20
3001;DHT22;1510;51.072;6.678;2022-08-07T07:21:26;18.80;34.20
3001;DHT22;1510;51.072;6.678;2022-08-07T07:24:14;18.60;29.80
3001;DHT22;1510;51.072;6.678;2022-08-07T07:26:45;18.60;32.00
3001;DHT22;1510;51.072;6.678;2022-08-07T07:29:37;18.40;37.70
3001;DHT22;1510;51.072;6.678;2022-08-07T07:32:35;18.40;35.10
3001;DHT22;1510;51.072;6.678;2022-08-07T07:35:29;18.30;34.10
3001;DHT22;1510;51.072;6.678;2022-08-07T07:38:14;18.20;33.60
3001;DHT22;1510;51.072;6.678;2022-08-07T07:45:27;18.40;35.20
3001;DHT22;1510;51.072;6.678;2022-08-07T07:48:06;18.50;37.00
3001;DHT22;1510;51.072;6.678;2022-08-07T07:50:47;18.70;35.40
3001;DHT22;1510;51.072;6.678;2022-08-07T07:53:34;18.80;35.30
3001;DHT22;1510;51.072;6.678;2022-08-07T07:56:16;18.70;30.30
3001;DHT22;1510;51.072;6.678;2022-08-07T08:01:33;19.20;34.00
3001;DHT22;1510;51.072;6.678;2022-08-07T08:10:34;20.00;25.30
3001;DHT22;1510;51.072;6.678;2022-08-07T08:13:41;20.40;20.90
3001;DHT22;1510;51.072;6.678;2022-08-07T08:16:23;20.90;21.20
3001;DHT22;1510;51.072;6.678;2022-08-07T08:28:32;23.80;8.70
3001;DHT22;1510;51.072;6.678;2022-08-07T08:31:19;24.10;4.30
3001;DHT22;1510;51.072;6.678;2022-08-07T08:34:07;24.40;6.40
3001;DHT22;1510;51.072;6.678;2022-08-07T08:36:53;24.30;1.80
3001;DHT22;1510;51.072;6.678;2022-08-07T08:40:28;24.70;1.00
3001;DHT22;1510;51.072;6.678;2022-08-07T08:43:15;25.30;1.00
3001;DHT22;1510;51.072;6.678;2022-08-07T08:48:58;26.10;1.00
3001;DHT22;1510;51.072;6.678;2022-08-07T08:51:46;26.20;1.00
3001;DHT22;1510;51.072;6.678;2022-08-07T08:54:55;26.70;1.00
3001;DHT22;1510;51.072;6.678;2022-08-07T08:58:07;26.80;1.00
3001;DHT22;1510;51.072;6.678;2022-08-07T09:00:51;26.60;1.00
3001;DHT22;1510;51.072;6.678;2022-08-07T09:03:49;26.60;1.00
3001;DHT22;1510;51.072;6.678;2022-08-07T09:19:23;25.30;1.00
3001;DHT22;1510;51.072;6.678;2022-08-07T09:22:01;25.60;1.00
3001;DHT22;1510;51.072;6.678;2022-08-07T09:24:55;25.40;1.00
3001;DHT22;1510;51.072;6.678;2022-08-07T09:28:06;26.00;1.00
3001;DHT22;1510;51.072;6.678;2022-08-07T09:34:41;25.80;1.00
3001;DHT22;1510;51.072;6.678;2022-08-07T09:37:38;26.50;1.00
3001;DHT22;1510;51.072;6.678;2022-08-07T09:40:46;26.80;1.00
3001;DHT22;1510;51.072;6.678;2022-08-07T09:43:27;27.00;1.00
3001;DHT22;1510;51.072;6.678;2022-08-07T09:46:07;27.10;1.00
3001;DHT22;1510;51.072;6.678;2022-08-07T09:48:41;27.40;1.00
3001;DHT22;1510;51.072;6.678;2022-08-07T09:51:21;27.40;1.00
3001;DHT22;1510;51.072;6.678;2022-08-07T09:53:53;28.50;1.00
3001;DHT22;1510;51.072;6.678;2022-08-07T09:56:46;28.90;1.00
3001;DHT22;1510;51.072;6.678;2022-08-07T09:59:36;28.50;1.00
3001;DHT22;1510;51.072;6.678;2022-08-07T10:02:18;28.30;1.00
3001;DHT22;1510;51.072;6.678;2022-08-07T10:05:06;28.90;1.00
3001;DHT22;1510;51.072;6.678;2022-08-07T10:07:58;28.90;1.00
3001;DHT22;1510;51.072;6.678;2022-08-07T10:10:37;29.40;1.00
3001;DHT22;1510;51.072;6.678;2022-08-07T10:13:20;29.50;1.00
3001;DHT22;1510;51.072;6.678;2022-08-07T10:16:03;27.80;1.00
3001;DHT22;1510;51.072;6.678;2022-08-07T10:18:55;27.60;1.00
3001;DHT22;1510;51.072;6.678;2022-08-07T10:21:31;28.00;1.00
3001;DHT22;1510;51.072;6.678;2022-08-07T10:24:27;28.30;1.00
3001;DHT22;1510;51.072;6.678;2022-08-07T10:27:15;28.50;1.00
3001;DHT22;1510;51.072;6.678;2022-08-07T10:30:00;29.40;1.00
3001;DHT22;1510;51.072;6.678;2022-08-07T10:35:26;28.20;1.00
3001;DHT22;1510;51.072;6.678;2022-08-07T10:38:10;29.30;1.00
3001;DHT22;1510;51.072;6.678;2022-08-07T10:40:44;29.70;1.00
3001;DHT22;1510;51.072;6.678;2022-08-07T10:43:16;29.90;1.00
3001;DHT22;1510;51.072;6.678;2022-08-07T10:45:47;29.70;1.00
3001;DHT22;1510;51.072;6.678;2022-08-07T10:48:24;30.20;1.00
3001;DHT22;1510;51.072;6.678;2022-08-07T10:50:55;29.50;1.00
3001;DHT22;1510;51.072;6.678;2022-08-07T10:53:27;30.30;1.00
3001;DHT22;1510;51.072;6.678;2022-08-07T10:56:03;30.50;1.00
3001;DHT22;1510;51.072;6.678;2022-08-07T10:58:40;30.20;1.00
3001;DHT22;1510;51.072;6.678;2022-08-07T11:01:34;29.70;1.00
3001;DHT22;1510;51.072;6.678;2022-08-07T11:04:10;29.60;1.00
3001;DHT22;1510;51.072;6.678;2022-08-07T11:10:02;29.20;1.00
3001;DHT22;1510;51.072;6.678;2022-08-07T11:12:57;29.90;1.00
3001;DHT22;1510;51.072;6.678;2022-08-07T11:16:35;31.20;1.00
3001;DHT22;1510;51.072;6.678;2022-08-07T11:18:57;30.40;1.00
3001;DHT22;1510;51.072;6.678;2022-08-07T11:22:06;30.60;1.00
3001;DHT22;1510;51.072;6.678;2022-08-07T11:24:40;29.40;1.00
3001;DHT22;1510;51.072;6.678;2022-08-07T11:27:12;28.50;1.00
3001;DHT22;1510;51.072;6.678;2022-08-07T11:29:50;28.50;1.00
3001;DHT22;1510;51.072;6.678;2022-08-07T11:32:35;28.60;1.00
3001;DHT22;1510;51.072;6.678;2022-08-07T11:35:08;29.10;1.00
3001;DHT22;1510;51.072;6.678;2022-08-07T11:37:58;30.10;1.00
3001;DHT22;1510;51.072;6.678;2022-08-07T11:40:55;30.30;1.00
3001;DHT22;1510;51.072;6.678;2022-08-07T11:43:31;29.90;1.00
3001;DHT22;1510;51.072;6.678;2022-08-07T11:46:21;29.20;1.00
3001;DHT22;1510;51.072;6.678;2022-08-07T11:49:21;29.20;1.00
3001;DHT22;1510;51.072;6.678;2022-08-07T11:52:01;29.90;1.00
3001;DHT22;1510;51.072;6.678;2022-08-07T11:54:45;31.00;1.00
3001;DHT22;1510;51.072;6.678;2022-08-07T11:57:25;31.60;1.00
3001;DHT22;1510;51.072;6.678;2022-08-07T12:00:05;31.20;1.00
3001;DHT22;1510;51.072;6.678;2022-08-07T12:02:59;30.70;1.00
3001;DHT22;1510;51.072;6.678;2022-08-07T12:05:37;29.50;1.00
3001;DHT22;1510;51.072;6.678;2022-08-07T12:08:10;29.40;1.00
3001;DHT22;1510;51.072;6.678;2022-08-07T12:10:46;30.90;1.00
3001;DHT22;1510;51.072;6.678;2022-08-07T12:13:21;31.90;1.00
3001;DHT22;1510;51.072;6.678;2022-08-07T12:16:03;32.50;1.00
3001;DHT22;1510;51.072;6.678;2022-08-07T12:18:41;32.70;1.00
3001;DHT22;1510;51.072;6.678;2022-08-07T12:21:34;30.70;1.00
3001;DHT22;1510;51.072;6.678;2022-08-07T12:24:13;29.60;1.00
3001;DHT22;1510;51.072;6.678;2022-08-07T12:26:44;29.90;1.00
3001;DHT22;1510;51.072;6.678;2022-08-07T12:29:22;29.20;1.00
3001;DHT22;1510;51.072;6.678;2022-08-07T12:32:00;30.80;1.00
3001;DHT22;1510;51.072;6.678;2022-08-07T12:34:39;30.80;1.00
3001;DHT22;1510;51.072;6.678;2022-08-07T12:37:09;30.70;1.00
3001;DHT22;1510;51.072;6.678;2022-08-07T12:39:50;29.70;1.00
3001;DHT22;1510;51.072;6.678;2022-08-07T12:42:26;30.40;1.00
3001;DHT22;1510;51.072;6.678;2022-08-07T12:45:06;31.60;1.00
3001;DHT22;1510;51.072;6.678;2022-08-07T12:47:46;31.80;1.00
3001;DHT22;1510;51.072;6.678;2022-08-07T12:50:32;31.60;1.00
3001;DHT22;1510;51.072;6.678;2022-08-07T12:53:11;32.20;1.00
3001;DHT22;1510;51.072;6.678;2022-08-07T12:55:49;30.70;1.00
3001;DHT22;1510;51.072;6.678;2022-08-07T12:58:23;30.30;1.00
3001;DHT22;1510;51.072;6.678;2022-08-07T13:01:06;32.30;1.00
3001;DHT22;1510;51.072;6.678;2022-08-07T13:03:59;33.30;1.00
3001;DHT22;1510;51.072;6.678;2022-08-07T13:06:57;33.00;1.00
3001;DHT22;1510;51.072;6.678;2022-08-07T13:12:30;32.60;1.00
3001;DHT22;1510;51.072;6.678;2022-08-07T13:15:10;31.80;1.00
3001;DHT22;1510;51.072;6.678;2022-08-07T13:17:56;31.70;1.00
3001;DHT22;1510;51.072;6.678;2022-08-07T13:20:38;32.00;1.00
3001;DHT22;1510;51.072;6.678;2022-08-07T13:23:16;31.50;1.00
3001;DHT22;1510;51.072;6.678;2022-08-07T13:26:02;31.80;1.00
3001;DHT22;1510;51.072;6.678;2022-08-07T13:28:36;31.70;1.00
3001;DHT22;1510;51.072;6.678;2022-08-07T13:31:16;32.70;1.00
3001;DHT22;1510;51.072;6.678;2022-08-07T13:33:56;33.70;1.00
3001;DHT22;1510;51.072;6.678;2022-08-07T13:36:51;34.90;1.00
3001;DHT22;1510;51.072;6.678;2022-08-07T13:39:28;33.80;1.00
3001;DHT22;1510;51.072;6.678;2022-08-07T13:42:07;31.80;1.00
3001;DHT22;1510;51.072;6.678;2022-08-07T13:44:48;32.40;1.00
3001;DHT22;1510;51.072;6.678;2022-08-07T13:47:33;32.40;1.00
3001;DHT22;1510;51.072;6.678;2022-08-07T13:50:05;31.80;1.00
3001;DHT22;1510;51.072;6.678;2022-08-07T13:52:37;32.20;1.00
3001;DHT22;1510;51.072;6.678;2022-08-07T13:55:11;33.20;1.00
3001;DHT22;1510;51.072;6.678;2022-08-07T13:58:02;33.90;1.00
3001;DHT22;1510;51.072;6.678;2022-08-07T14:00:59;30.80;1.00
3001;DHT22;1510;51.072;6.678;2022-08-07T14:03:36;30.20;1.00
3001;DHT22;1510;51.072;6.678;2022-08-07T14:06:32;30.10;1.00
3001;DHT22;1510;51.072;6.678;2022-08-07T14:09:45;29.90;1.00
3001;DHT22;1510;51.072;6.678;2022-08-07T14:12:31;30.60;1.00
3001;DHT22;1510;51.072;6.678;2022-08-07T14:15:29;30.90;1.00
3001;DHT22;1510;51.072;6.678;2022-08-07T14:18:13;30.50;1.00
3001;DHT22;1510;51.072;6.678;2022-08-07T14:21:08;31.10;1.00
3001;DHT22;1510;51.072;6.678;2022-08-07T14:24:21;30.90;1.00
3001;DHT22;1510;51.072;6.678;2022-08-07T14:27:18;30.50;1.00
3001;DHT22;1510;51.072;6.678;2022-08-07T14:30:11;31.50;1.00
3001;DHT22;1510;51.072;6.678;2022-08-07T14:32:55;30.90;1.00
3001;DHT22;1510;51.072;6.678;2022-08-07T14:35:34;30.80;1.00
3001;DHT22;1510;51.072;6.678;2022-08-07T14:38:31;31.20;1.00
3001;DHT22;1510;51.072;6.678;2022-08-07T14:41:17;32.80;1.00
3001;DHT22;1510;51.072;6.678;2022-08-07T14:47:18;30.70;1.00
3001;DHT22;1510;51.072;6.678;2022-08-07T14:50:04;30.80;1.00
3001;DHT22;1510;51.072;6.678;2022-08-07T14:53:08;30.20;1.00
3001;DHT22;1510;51.072;6.678;2022-08-07T14:55:47;30.60;1.00
3001;DHT22;1510;51.072;6.678;2022-08-07T14:58:17;31.30;1.00
3001;DHT22;1510;51.072;6.678;2022-08-07T15:00:55;31.80;1.00
3001;DHT22;1510;51.072;6.678;2022-08-07T15:03:33;32.80;1.00
3001;DHT22;1510;51.072;6.678;2022-08-07T15:06:04;32.60;1.00
3001;DHT22;1510;51.072;6.678;2022-08-07T15:08:47;30.60;1.00
3001;DHT22;1510;51.072;6.678;2022-08-07T15:11:46;30.50;1.00
3001;DHT22;1510;51.072;6.678;2022-08-07T15:14:40;31.30;1.00
3001;DHT22;1510;51.072;6.678;2022-08-07T15:17:18;32.20;1.00
3001;DHT22;1510;51.072;6.678;2022-08-07T15:19:53;33.00;1.00
3001;DHT22;1510;51.072;6.678;2022-08-07T15:22:33;32.60;1.00
3001;DHT22;1510;51.072;6.678;2022-08-07T15:25:15;31.20;1.00
3001;DHT22;1510;51.072;6.678;2022-08-07T15:27:53;30.70;1.00
3001;DHT22;1510;51.072;6.678;2022-08-07T15:30:31;31.10;1.00
3001;DHT22;1510;51.072;6.678;2022-08-07T15:33:24;30.40;1.00
3001;DHT22;1510;51.072;6.678;2022-08-07T15:35:58;30.00;1.00
3001;DHT22;1510;51.072;6.678;2022-08-07T15:38:33;30.80;1.00
3001;DHT22;1510;51.072;6.678;2022-08-07T15:41:10;31.80;1.00
3001;DHT22;1510;51.072;6.678;2022-08-07T15:43:40;30.20;1.00
3001;DHT22;1510;51.072;6.678;2022-08-07T15:46:16;29.50;1.00
3001;DHT22;1510;51.072;6.678;2022-08-07T15:48:47;29.90;1.00
3001;DHT22;1510;51.072;6.678;2022-08-07T15:51:15;29.90;1.00
3001;DHT22;1510;51.072;6.678;2022-08-07T15:53:48;29.80;1.00
3001;DHT22;1510;51.072;6.678;2022-08-07T15:56:16;30.10;1.00
3001;DHT22;1510;51.072;6.678;2022-08-07T15:58:51;30.10;1.00
3001;DHT22;1510;51.072;6.678;2022-08-07T16:01:23;30.40;1.00
3001;DHT22;1510;51.072;6.678;2022-08-07T16:03:55;30.40;1.00
3001;DHT22;1510;51.072;6.678;2022-08-07T16:06:30;31.00;1.00
3001;DHT22;1510;51.072;6.678;2022-08-07T16:09:01;30.70;1.00
3001;DHT22;1510;51.072;6.678;2022-08-07T16:12:05;30.60;1.00
3001;DHT22;1510;51.072;6.678;2022-08-07T16:18:24;31.30;1.00
3001;DHT22;1510;51.072;6.678;2022-08-07T16:21:09;31.00;1.00
3001;DHT22;1510;51.072;6.678;2022-08-07T16:23:53;30.40;1.00
3001;DHT22;1510;51.072;6.678;2022-08-07T16:26:34;30.40;1.00
3001;DHT22;1510;51.072;6.678;2022-08-07T16:29:15;30.20;1.00
3001;DHT22;1510;51.072;6.678;2022-08-07T16:31:53;29.80;1.00
3001;DHT22;1510;51.072;6.678;2022-08-07T16:34:28;29.40;1.00
3001;DHT22;1510;51.072;6.678;2022-08-07T16:37:24;28.60;1.00
3001;DHT22;1510;51.072;6.678;2022-08-07T16:43:22;28.40;1.00
3001;DHT22;1510;51.072;6.678;2022-08-07T16:52:05;28.10;1.00
3001;DHT22;1510;51.072;6.678;2022-08-07T16:57:52;28.00;1.00
3001;DHT22;1510;51.072;6.678;2022-08-07T17:03:50;27.30;1.00
3001;DHT22;1510;51.072;6.678;2022-08-07T17:07:00;26.60;1.00
3001;DHT22;1510;51.072;6.678;2022-08-07T17:09:56;26.90;1.00
3001;DHT22;1510;51.072;6.678;2022-08-07T17:12:42;27.10;1.00
3001;DHT22;1510;51.072;6.678;2022-08-07T17:15:34;27.90;1.00
3001;DHT22;1510;51.072;6.678;2022-08-07T17:18:26;28.10;1.00
3001;DHT22;1510;51.072;6.678;2022-08-07T17:21:10;28.60;1.00
3001;DHT22;1510;51.072;6.678;2022-08-07T17:23:43;28.50;1.00
3001;DHT22;1510;51.072;6.678;2022-08-07T17:26:22;28.90;1.00
3001;DHT22;1510;51.072;6.678;2022-08-07T17:29:07;28.70;1.00
3001;DHT22;1510;51.072;6.678;2022-08-07T17:31:54;28.70;1.00
3001;DHT22;1510;51.072;6.678;2022-08-07T17:34:52;29.20;1.00
3001;DHT22;1510;51.072;6.678;2022-08-07T17:37:42;28.90;1.00
3001;DHT22;1510;51.072;6.678;2022-08-07T17:40:19;28.60;1.00
3001;DHT22;1510;51.072;6.678;2022-08-07T17:42:52;27.90;1.00
3001;DHT22;1510;51.072;6.678;2022-08-07T17:45:25;27.70;1.00
3001;DHT22;1510;51.072;6.678;2022-08-07T17:48:00;27.40;1.00
3001;DHT22;1510;51.072;6.678;2022-08-07T17:50:35;27.10;1.00
3001;DHT22;1510;51.072;6.678;2022-08-07T17:53:07;27.60;1.00
3001;DHT22;1510;51.072;6.678;2022-08-07T17:55:40;27.80;1.00
3001;DHT22;1510;51.072;6.678;2022-08-07T17:58:17;27.60;1.00
3001;DHT22;1510;51.072;6.678;2022-08-07T18:00:51;27.40;1.00
3001;DHT22;1510;51.072;6.678;2022-08-07T18:03:22;26.50;1.00
3001;DHT22;1510;51.072;6.678;2022-08-07T18:05:57;26.60;1.00
3001;DHT22;1510;51.072;6.678;2022-08-07T18:08:29;26.10;1.00
3001;DHT22;1510;51.072;6.678;2022-08-07T18:11:05;25.40;1.00
3001;DHT22;1510;51.072;6.678;2022-08-07T18:13:39;24.90;1.00
3001;DHT22;1510;51.072;6.678;2022-08-07T18:16:16;24.90;1.00
3001;DHT22;1510;51.072;6.678;2022-08-07T18:18:47;24.70;1.00
3001;DHT22;1510;51.072;6.678;2022-08-07T18:21:20;23.90;1.00
3001;DHT22;1510;51.072;6.678;2022-08-07T18:24:06;23.50;1.00
3001;DHT22;1510;51.072;6.678;2022-08-07T18:29:59;22.90;1.00
3001;DHT22;1510;51.072;6.678;2022-08-07T18:33:24;22.80;1.00
3001;DHT22;1510;51.072;6.678;2022-08-07T18:36:03;22.80;1.00
3001;DHT22;1510;51.072;6.678;2022-08-07T18:38:42;22.70;1.00
3001;DHT22;1510;51.072;6.678;2022-08-07T18:41:20;22.80;1.00
3001;DHT22;1510;51.072;6.678;2022-08-07T18:43:59;22.20;1.00
3001;DHT22;1510;51.072;6.678;2022-08-07T18:46:35;21.90;1.00
3001;DHT22;1510;51.072;6.678;2022-08-07T18:49:18;21.80;1.00
3001;DHT22;1510;51.072;6.678;2022-08-07T18:51:50;21.70;1.00
3001;DHT22;1510;51.072;6.678;2022-08-07T18:54:28;21.50;1.00
3001;DHT22;1510;51.072;6.678;2022-08-07T18:57:05;21.20;1.00
3001;DHT22;1510;51.072;6.678;2022-08-07T18:59:42;20.90;1.00
3001;DHT22;1510;51.072;6.678;2022-08-07T19:02:21;20.80;1.00
3001;DHT22;1510;51.072;6.678;2022-08-07T19:05:00;20.80;1.00
3001;DHT22;1510;51.072;6.678;2022-08-07T19:07:37;20.30;1.00
3001;DHT22;1510;51.072;6.678;2022-08-07T19:10:10;20.20;1.00
3001;DHT22;1510;51.072;6.678;2022-08-07T19:12:52;19.90;1.00
3001;DHT22;1510;51.072;6.678;2022-08-07T19:15:24;19.70;1.00
3001;DHT22;1510;51.072;6.678;2022-08-07T19:17:58;19.60;1.60
3001;DHT22;1510;51.072;6.678;2022-08-07T19:20:43;19.50;2.30